createdAt,value
2018-05-05T00:01:06.836Z,"    0"
2018-05-05T00:06:02.639Z,"    0"
2018-05-05T00:10:58.458Z,"    0"
2018-05-05T00:15:59.203Z,"    0"
2018-05-05T00:20:55.171Z,"    0"
2018-05-05T00:25:51.163Z,"    0"
2018-05-05T00:30:50.835Z,"    0"
2018-05-05T00:35:45.703Z,"    0"
2018-05-05T00:40:41.413Z,"    0"
2018-05-05T00:45:37.108Z,"    0"
2018-05-05T00:50:37.710Z,"    0"
2018-05-05T00:55:32.402Z,"    0"
2018-05-05T01:00:29.288Z,"    0"
2018-05-05T01:05:25.664Z,"    0"
2018-05-05T01:10:21.603Z,"    0"
2018-05-05T01:15:17.326Z,"    0"
2018-05-05T01:20:13.150Z,"    0"
2018-05-05T01:25:08.809Z,"    0"
2018-05-05T01:30:06.669Z,"    0"
2018-05-05T01:35:03.316Z,"    0"
2018-05-05T01:39:58.649Z,"    0"
2018-05-05T01:44:54.390Z,"    0"
2018-05-05T01:49:49.793Z,"    0"
2018-05-05T01:54:45.165Z,"    0"
2018-05-05T01:59:46.259Z,"    0"
2018-05-05T02:04:41.293Z,"    0"
2018-05-05T02:09:40.798Z,"    0"
2018-05-05T02:14:35.620Z,"    0"
2018-05-05T02:19:35.636Z,"    0"
2018-05-05T02:24:30.687Z,"    0"
2018-05-05T02:29:26.354Z,"    0"
2018-05-05T02:34:21.998Z,"    0"
2018-05-05T02:39:18.774Z,"    0"
2018-05-05T02:44:14.355Z,"    0"
2018-05-05T02:49:09.956Z,"    0"
2018-05-05T02:54:05.677Z,"    0"
2018-05-05T02:59:01.770Z,"    0"
2018-05-05T03:03:57.551Z,"    0"
2018-05-05T03:08:53.204Z,"    0"
2018-05-05T03:13:49.028Z,"    0"
2018-05-05T03:18:44.637Z,"    0"
2018-05-05T03:23:40.295Z,"    0"
2018-05-05T03:28:40.226Z,"    0"
2018-05-05T03:33:35.056Z,"    0"
2018-05-05T03:38:30.976Z,"    0"
2018-05-05T03:43:26.690Z,"    0"
2018-05-05T03:48:23.340Z,"    5"
2018-05-05T03:53:18.729Z,"    5"
2018-05-05T03:58:15.426Z,"   10"
2018-05-05T04:03:15.676Z,"   10"
2018-05-05T04:08:10.291Z,"   15"
2018-05-05T04:13:09.869Z,"   20"
2018-05-05T04:18:05.695Z,"   25"
2018-05-05T04:23:05.258Z,"   30"
2018-05-05T04:27:59.964Z,"   35"
2018-05-05T04:32:57.224Z,"   45"
2018-05-05T04:37:56.513Z,"   55"
2018-05-05T04:42:55.695Z,"   60"
2018-05-05T04:47:55.998Z,"   60"
2018-05-05T04:52:50.842Z,"   65"
2018-05-05T04:57:46.553Z,"   65"
2018-05-05T05:02:42.563Z,"   75"
2018-05-05T05:07:38.912Z,"   75"
2018-05-05T05:12:35.567Z,"   80"
2018-05-05T05:17:36.189Z,"   80"
2018-05-05T05:22:34.934Z,"   80"
2018-05-05T05:27:29.961Z,"   85"
2018-05-05T05:32:25.563Z,"   85"
2018-05-05T05:37:21.360Z,"   90"
2018-05-05T05:42:21.053Z,"   95"
2018-05-05T05:47:21.239Z,"   95"
2018-05-05T05:52:15.888Z,"   95"
2018-05-05T05:57:11.833Z,"   95"
2018-05-05T06:02:07.888Z,"  100"
2018-05-05T06:07:03.813Z,"  100"
2018-05-05T06:12:01.014Z,"  100"
2018-05-05T06:16:56.505Z,"  105"
2018-05-05T06:21:53.074Z,"  100"
2018-05-05T06:26:52.904Z,"  100"
2018-05-05T06:31:51.961Z,"  115"
2018-05-05T06:36:47.657Z,"  115"
2018-05-05T06:41:43.556Z,"  105"
2018-05-05T06:46:44.460Z,"  205"
2018-05-05T06:51:39.838Z,"  110"
2018-05-05T06:56:36.607Z,"  110"
2018-05-05T07:01:36.150Z,"  115"
2018-05-05T07:06:35.780Z,"  130"
2018-05-05T07:11:30.933Z,"  145"
2018-05-05T07:16:27.855Z,"  115"
2018-05-05T07:21:23.333Z,"  115"
2018-05-05T07:26:19.550Z,"  135"
2018-05-05T07:31:20.567Z,"  160"
2018-05-05T07:36:15.912Z,"  175"
2018-05-05T07:41:13.028Z,"  350"
2018-05-05T07:46:15.281Z," 1080"
2018-05-05T07:51:16.538Z," 1180"
2018-05-05T07:56:13.214Z," 1295"
2018-05-05T08:01:14.293Z," 1275"
2018-05-05T08:06:11.313Z," 1280"
2018-05-05T08:11:07.964Z," 1265"
2018-05-05T08:16:06.062Z," 1345"
2018-05-05T08:21:01.455Z," 1340"
2018-05-05T08:25:57.847Z," 1400"
2018-05-05T08:30:53.926Z," 1400"
2018-05-05T08:35:51.651Z," 1435"
2018-05-05T08:40:51.747Z," 1335"
2018-05-05T08:45:46.440Z,"  330"
2018-05-05T08:50:40.346Z,"  280"
2018-05-05T08:55:36.354Z,"  510"
2018-05-05T09:00:32.259Z,"  260"
2018-05-05T09:05:27.307Z,"  250"
2018-05-05T09:10:26.721Z,"  250"
2018-05-05T09:15:22.251Z,"  435"
2018-05-05T09:20:19.630Z," 1480"
2018-05-05T09:25:19.014Z," 1735"
2018-05-05T09:30:15.508Z,"  800"
2018-05-05T09:35:15.213Z," 1160"
2018-05-05T09:40:15.203Z," 1075"
2018-05-05T09:45:10.810Z," 1565"
2018-05-05T09:50:07.660Z," 1300"
2018-05-05T09:55:07.549Z," 1770"
2018-05-05T10:00:03.145Z," 1785"
2018-05-05T10:05:03.814Z," 1805"
2018-05-05T10:10:03.218Z," 1725"
2018-05-05T10:14:58.427Z," 1820"
2018-05-05T10:19:55.243Z," 1880"
2018-05-05T10:24:57.229Z," 1915"
2018-05-05T10:29:52.931Z," 1820"
2018-05-05T10:34:49.507Z," 1940"
2018-05-05T10:39:46.609Z," 1655"
2018-05-05T10:44:44.070Z," 1895"
2018-05-05T10:49:41.433Z," 1915"
2018-05-05T10:54:37.844Z," 1960"
2018-05-05T10:59:34.161Z," 1990"
2018-05-05T11:04:30.871Z," 1925"
2018-05-05T11:09:28.384Z," 1980"
2018-05-05T11:14:24.381Z," 1810"
2018-05-05T11:19:21.356Z," 1910"
2018-05-05T11:24:21.523Z," 1875"
2018-05-05T11:29:16.634Z," 1940"
2018-05-05T11:34:13.096Z," 1980"
2018-05-05T11:39:09.938Z," 2045"
2018-05-05T11:44:06.262Z," 2070"
2018-05-05T11:49:02.586Z," 1940"
2018-05-05T11:53:59.519Z," 1970"
2018-05-05T11:58:55.641Z," 1940"
2018-05-05T12:03:52.149Z," 2005"
2018-05-05T12:08:52.364Z," 2015"
2018-05-05T12:13:48.244Z," 2095"
2018-05-05T12:18:44.139Z," 1815"
2018-05-05T12:23:43.965Z," 1810"
2018-05-05T12:28:38.895Z," 1735"
2018-05-05T12:33:35.548Z," 1970"
2018-05-05T12:38:35.290Z," 1370"
2018-05-05T12:43:25.440Z,"  330"
2018-05-05T12:48:22.261Z,"  220"
2018-05-05T12:53:16.815Z,"  550"
2018-05-05T12:58:15.865Z," 1895"
2018-05-05T13:03:17.127Z," 1950"
2018-05-05T13:08:12.360Z," 1130"
2018-05-05T13:13:11.939Z," 1825"
2018-05-05T13:18:11.168Z," 1940"
2018-05-05T13:23:07.708Z," 1950"
2018-05-05T13:28:07.408Z," 1785"
2018-05-05T13:33:03.018Z,"  465"
2018-05-05T13:38:01.153Z,"  290"
2018-05-05T13:42:55.859Z,"  130"
2018-05-05T13:47:50.276Z,"  125"
2018-05-05T13:52:45.328Z,"  125"
2018-05-05T13:57:40.804Z,"  135"
2018-05-05T14:02:36.314Z,"  120"
2018-05-05T14:07:36.910Z,"  115"
2018-05-05T14:12:36.783Z,"  140"
2018-05-05T14:17:36.286Z,"  155"
2018-05-05T14:22:36.230Z,"  195"
2018-05-05T14:27:31.099Z,"  115"
2018-05-05T14:32:26.927Z,"  115"
2018-05-05T14:37:22.765Z,"  110"
2018-05-05T14:42:18.501Z,"  110"
2018-05-05T14:47:14.158Z,"  110"
2018-05-05T14:52:11.052Z,"  110"
2018-05-05T14:57:07.622Z,"  105"
2018-05-05T15:02:03.215Z,"  105"
2018-05-05T15:06:59.195Z,"  100"
2018-05-05T15:11:55.262Z,"  100"
2018-05-05T15:16:55.021Z,"  100"
2018-05-05T15:21:49.992Z,"  100"
2018-05-05T15:26:45.742Z,"   95"
2018-05-05T15:31:45.815Z,"   95"
2018-05-05T15:36:40.793Z,"   95"
2018-05-05T15:41:36.650Z,"   95"
2018-05-05T15:46:32.567Z,"   90"
2018-05-05T15:51:32.415Z,"   90"
2018-05-05T15:56:28.587Z,"   90"
2018-05-05T16:01:25.336Z,"   90"
2018-05-05T16:06:24.434Z,"   85"
2018-05-05T16:11:19.583Z,"   85"
2018-05-05T16:16:16.544Z,"   85"
2018-05-05T16:21:11.943Z,"   85"
2018-05-05T16:26:09.183Z,"   85"
2018-05-05T16:31:05.347Z,"   80"
2018-05-05T16:36:05.090Z,"   80"
2018-05-05T16:40:59.922Z,"   80"
2018-05-05T16:45:55.807Z,"   80"
2018-05-05T16:50:51.749Z,"   75"
2018-05-05T16:55:47.576Z,"   75"
2018-05-05T17:00:48.122Z,"   75"
2018-05-05T17:05:43.154Z,"   70"
2018-05-05T17:10:39.557Z,"   70"
2018-05-05T17:15:39.693Z,"   70"
2018-05-05T17:20:34.630Z,"   65"
2018-05-05T17:25:30.706Z,"   65"
2018-05-05T17:30:26.447Z,"   60"
2018-05-05T17:35:23.458Z,"   60"
2018-05-05T17:40:20.033Z,"   55"
2018-05-05T17:45:20.714Z,"   55"
2018-05-05T17:50:15.479Z,"   50"
2018-05-05T17:55:11.136Z,"   50"
2018-05-05T18:00:06.990Z,"   45"
2018-05-05T18:05:03.806Z,"   40"
2018-05-05T18:10:00.353Z,"   40"
2018-05-05T18:14:57.053Z,"   40"
2018-05-05T18:19:57.218Z,"   35"
2018-05-05T18:24:51.962Z,"   30"
2018-05-05T18:29:52.504Z,"   25"
2018-05-05T18:34:47.344Z,"   20"
2018-05-05T18:39:43.864Z,"   15"
2018-05-05T18:44:39.835Z,"   10"
2018-05-05T18:49:35.656Z,"   10"
2018-05-05T18:54:32.431Z,"    5"
2018-05-05T18:59:32.723Z,"    5"
2018-05-05T19:04:27.463Z,"    0"
2018-05-05T19:09:28.162Z,"    0"
2018-05-05T19:14:22.688Z,"    0"
2018-05-05T19:19:18.553Z,"    0"
2018-05-05T19:24:15.427Z,"    0"
2018-05-05T19:29:10.792Z,"    0"
2018-05-05T19:34:06.589Z,"    0"
2018-05-05T19:39:02.784Z,"    0"
2018-05-05T19:44:03.480Z,"    0"
2018-05-05T19:48:58.243Z,"    0"
2018-05-05T19:53:54.015Z,"    0"
2018-05-05T19:58:49.951Z,"    0"
2018-05-05T20:03:49.962Z,"    0"
2018-05-05T20:08:44.689Z,"    0"
2018-05-05T20:13:40.236Z,"    0"
2018-05-05T20:18:36.358Z,"    0"
2018-05-05T20:23:33.096Z,"    0"
2018-05-05T20:28:33.514Z,"    0"
2018-05-05T20:33:28.629Z,"    0"
2018-05-05T20:38:24.655Z,"    0"
2018-05-05T20:43:21.333Z,"    0"
2018-05-05T20:48:16.802Z,"    0"
2018-05-05T20:53:12.214Z,"    0"
2018-05-05T20:58:13.400Z,"    0"
2018-05-05T21:03:08.084Z,"    0"
2018-05-05T21:08:08.607Z,"    0"
2018-05-05T21:13:03.492Z,"    0"
2018-05-05T21:17:59.251Z,"    0"
2018-05-05T21:22:55.178Z,"    0"
2018-05-05T21:27:50.863Z,"    0"
2018-05-05T21:32:46.522Z,"    0"
2018-05-05T21:37:42.368Z,"    0"
2018-05-05T21:42:42.631Z,"    0"
2018-05-05T21:47:37.414Z,"    0"
2018-05-05T21:52:33.050Z,"    0"
2018-05-05T21:57:32.586Z,"    0"
2018-05-05T22:02:27.588Z,"    0"
2018-05-05T22:07:27.417Z,"    0"
2018-05-05T22:12:22.555Z,"    0"
2018-05-05T22:17:18.323Z,"    0"
2018-05-05T22:22:14.450Z,"    0"
2018-05-05T22:27:12.053Z,"    0"
2018-05-05T22:32:11.530Z,"    0"
2018-05-05T22:37:06.671Z,"    0"
2018-05-05T22:42:02.205Z,"    0"
2018-05-05T22:46:58.469Z,"    0"
2018-05-05T22:51:54.349Z,"    0"
2018-05-05T22:56:50.316Z,"    0"
2018-05-05T23:01:46.363Z,"    0"
2018-05-05T23:06:47.400Z,"    0"
2018-05-05T23:11:41.995Z,"    0"
2018-05-05T23:16:37.623Z,"    0"
2018-05-05T23:21:37.527Z,"    0"
2018-05-05T23:26:36.287Z,"    0"
2018-05-05T23:31:31.967Z,"    0"
2018-05-05T23:36:27.455Z,"    0"
2018-05-05T23:41:23.006Z,"    0"
2018-05-05T23:46:18.744Z,"    0"
2018-05-05T23:51:18.142Z,"    0"
2018-05-05T23:56:17.107Z,"    0"
